VMMC METAR and TAF | Updated Today

VMMC METAR

Macau International Airport

Observation time: 28 min. ago

VMMC 060830Z 35007KT CAVOK 21/10 Q1018 NOSIG

Need help? Read our tutorial on how to read METARs or read the parsed version below.

Macau International Airport (VMMC) METAR

  • Weather conditions on Mon, 06 Dec 2021 08:30:00 +0000 (28 min. ago):
  • Present conditions: Dry
  • Clouds: Clear skies
  • Visibility: Greater than 10 km
  • Wind: 350 degrees at 7 knots
  • Temperature: 21 celsius
  • Dew point: 10 celsius
  • Pressure: 1018 millibars
  • Remarks: None


Useful to know...

VMMC TAF

Macau International Airport

TAF VMMC 060500Z 0606/0712 01008KT CAVOK BECMG 0709/0712 07010KT
Observation time: 3:58 hr. ago
Need help? Read our tutorial on how to read TAFs or read the parsed version below.

Parsed version of TAF for Macau International Airport (VMMC)

  • From 06 December at 06:00 UTC, to day 07 of the month at 12:00 UTC
  • Visibility: Greater than 10 km
  • Wind: 10 degrees at 8
  • Expected to arise soon, from 07 December at 09:00 UTC, to day 07 of the month at 12:00 UTC
  • Wind: 70 degrees at 10